Time,TemperatureF,DewpointF,PressureIn,WindDirection,WindDirectionDegrees,WindSpeedMPH,WindSpeedGustMPH,Humidity,HourlyPrecipIn,Conditions,Clouds,dailyrainin,SoftwareType,DateUTC
2013-01-22 00:00:00,32.1,11.6,29.93,West,264,1.0,1.0,42,0.00,,,0.00,Wunderground v.1.15,2013-01-22 05:00:00,
2013-01-22 00:05:00,31.9,11.4,29.93,NNW,328,1.0,2.0,42,0.00,,,0.00,Wunderground v.1.15,2013-01-22 05:05:00,
2013-01-22 00:15:00,31.9,11.9,29.93,SSE,151,1.0,2.0,43,0.00,,,0.00,Wunderground v.1.15,2013-01-22 05:15:00,
2013-01-22 00:25:00,31.6,10.6,29.93,North,350,1.0,1.0,41,0.00,,,0.00,Wunderground v.1.15,2013-01-22 05:25:00,
2013-01-22 00:29:00,31.5,11.0,29.93,NW,318,1.0,1.0,42,0.00,,,0.00,Wunderground v.1.15,2013-01-22 05:29:00,
2013-01-22 00:35:00,31.4,10.9,29.93,NW,320,1.0,1.0,42,0.00,,,0.00,Wunderground v.1.15,2013-01-22 05:35:00,
2013-01-22 00:40:00,31.2,11.3,29.94,West,279,1.0,1.0,43,0.00,,,0.00,Wunderground v.1.15,2013-01-22 05:40:00,
2013-01-22 00:45:00,31.0,10.0,29.94,West,279,0.0,1.0,41,0.00,,,0.00,Wunderground v.1.15,2013-01-22 05:45:00,
2013-01-22 00:55:00,30.7,11.3,29.95,WSW,251,1.0,1.0,44,0.00,,,0.00,Wunderground v.1.15,2013-01-22 05:55:00,
2013-01-22 01:05:00,30.4,11.6,29.95,ESE,113,2.0,2.0,45,0.00,,,0.00,Wunderground v.1.15,2013-01-22 06:05:00,
2013-01-22 01:15:00,30.1,11.3,29.96,WNW,289,2.0,6.0,45,0.00,,,0.00,Wunderground v.1.15,2013-01-22 06:15:00,
2013-01-22 01:25:00,29.9,11.1,29.96,NW,325,2.0,3.0,45,0.00,,,0.00,Wunderground v.1.15,2013-01-22 06:25:00,
2013-01-22 01:30:00,29.7,10.4,29.96,North,11,1.0,2.0,44,0.00,,,0.00,Wunderground v.1.15,2013-01-22 06:30:00,
2013-01-22 01:40:00,29.4,10.1,29.97,NNW,343,2.0,3.0,44,0.00,,,0.00,Wunderground v.1.15,2013-01-22 06:40:00,
2013-01-22 01:45:00,29.2,10.0,29.98,NW,326,1.0,3.0,44,0.00,,,0.00,Wunderground v.1.15,2013-01-22 06:45:00,
2013-01-22 01:55:00,28.9,9.7,29.98,NW,308,2.0,2.0,44,0.00,,,0.00,Wunderground v.1.15,2013-01-22 06:55:00,
2013-01-22 02:05:00,28.6,9.9,29.99,WNW,301,2.0,2.0,45,0.00,,,0.00,Wunderground v.1.15,2013-01-22 07:05:00,
2013-01-22 02:15:00,28.2,8.0,30.00,NNW,346,3.0,10.0,42,0.00,,,0.00,Wunderground v.1.15,2013-01-22 07:15:00,
2013-01-22 02:20:00,28.0,7.8,29.99,WNW,288,5.0,8.0,42,0.00,,,0.00,Wunderground v.1.15,2013-01-22 07:20:00,
2013-01-22 02:30:00,27.7,8.1,30.00,NNW,341,2.0,3.0,43,0.00,,,0.00,Wunderground v.1.15,2013-01-22 07:30:00,
2013-01-22 02:40:00,27.4,7.3,30.00,NNW,338,2.0,2.0,42,0.00,,,0.00,Wunderground v.1.15,2013-01-22 07:40:00,
2013-01-22 02:45:00,27.2,7.6,30.00,WNW,297,1.0,2.0,43,0.00,,,0.00,Wunderground v.1.15,2013-01-22 07:45:00,
2013-01-22 02:55:00,26.9,7.4,30.01,NW,318,2.0,4.0,43,0.00,,,0.00,Wunderground v.1.15,2013-01-22 07:55:00,
2013-01-22 03:00:00,26.7,7.7,30.01,NNW,331,2.0,2.0,44,0.00,,,0.00,Wunderground v.1.15,2013-01-22 08:00:00,
2013-01-22 03:05:00,26.6,8.1,30.02,South,187,1.0,2.0,45,0.00,,,0.00,Wunderground v.1.15,2013-01-22 08:05:00,
2013-01-22 03:15:00,26.2,7.7,30.02,NW,308,1.0,1.0,45,0.00,,,0.00,Wunderground v.1.15,2013-01-22 08:15:00,
2013-01-22 03:20:00,26.1,8.1,30.02,North,359,1.0,1.0,46,0.00,,,0.00,Wunderground v.1.15,2013-01-22 08:20:00,
2013-01-22 03:30:00,25.8,7.8,30.02,NW,313,0.0,0.0,46,0.00,,,0.00,Wunderground v.1.15,2013-01-22 08:30:00,
2013-01-22 03:35:00,25.6,8.1,30.03,South,187,0.0,0.0,47,0.00,,,0.00,Wunderground v.1.15,2013-01-22 08:35:00,
2013-01-22 03:45:00,25.3,6.9,30.03,NNW,344,1.0,3.0,45,0.00,,,0.00,Wunderground v.1.15,2013-01-22 08:45:00,
2013-01-22 03:55:00,25.1,6.7,30.03,West,261,1.0,1.0,45,0.00,,,0.00,Wunderground v.1.15,2013-01-22 08:55:00,
2013-01-22 04:00:00,24.9,6.5,30.03,NNE,25,1.0,4.0,45,0.00,,,0.00,Wunderground v.1.15,2013-01-22 09:00:00,
2013-01-22 04:05:00,24.8,6.4,30.04,NNW,341,2.0,4.0,45,0.00,,,0.00,Wunderground v.1.15,2013-01-22 09:05:00,
2013-01-22 04:15:00,24.5,6.2,30.05,NNW,346,0.0,1.0,45,0.00,,,0.00,Wunderground v.1.15,2013-01-22 09:15:00,
2013-01-22 04:20:00,24.4,6.1,30.05,NNW,332,1.0,1.0,45,0.00,,,0.00,Wunderground v.1.15,2013-01-22 09:20:00,
2013-01-22 04:30:00,24.0,5.7,30.05,NNW,337,1.0,1.0,45,0.00,,,0.00,Wunderground v.1.15,2013-01-22 09:30:00,
2013-01-22 04:35:00,23.9,5.6,30.05,NNW,332,1.0,1.0,45,0.00,,,0.00,Wunderground v.1.15,2013-01-22 09:35:00,
2013-01-22 04:45:00,23.5,6.2,30.06,NW,324,0.0,1.0,47,0.00,,,0.00,Wunderground v.1.15,2013-01-22 09:45:00,
2013-01-22 04:50:00,23.4,6.1,30.06,NNW,336,0.0,0.0,47,0.00,,,0.00,Wunderground v.1.15,2013-01-22 09:50:00,
2013-01-22 05:00:00,23.1,4.9,30.06,NNW,331,2.0,3.0,45,0.00,,,0.00,Wunderground v.1.15,2013-01-22 10:00:00,
2013-01-22 05:05:00,23.0,4.8,30.06,NNW,327,2.0,4.0,45,0.00,,,0.00,Wunderground v.1.15,2013-01-22 10:05:00,
2013-01-22 05:14:00,23.0,5.3,30.07,NW,326,2.0,2.0,46,0.00,,,0.00,Wunderground v.1.15,2013-01-22 10:14:00,
2013-01-22 05:20:00,22.8,5.1,30.07,NW,326,0.0,0.0,46,0.00,,,0.00,Wunderground v.1.15,2013-01-22 10:20:00,
2013-01-22 05:25:00,22.5,4.8,30.08,NNW,332,0.0,3.0,46,0.00,,,0.00,Wunderground v.1.15,2013-01-22 10:25:00,
2013-01-22 05:35:00,22.2,5.5,30.09,NNW,332,0.0,1.0,48,0.00,,,0.00,Wunderground v.1.15,2013-01-22 10:35:00,
2013-01-22 05:40:00,22.0,4.8,30.09,NNW,329,0.0,0.0,47,0.00,,,0.00,Wunderground v.1.15,2013-01-22 10:40:00,
2013-01-22 05:50:00,21.7,3.6,30.09,NNW,330,1.0,1.0,45,0.00,,,0.00,Wunderground v.1.15,2013-01-22 10:50:00,
2013-01-22 06:00:00,21.7,3.1,30.10,NW,312,1.0,1.0,44,0.00,,,0.00,Wunderground v.1.15,2013-01-22 11:00:00,
2013-01-22 06:05:00,21.7,2.6,30.10,NNW,337,1.0,9.0,43,0.00,,,0.00,Wunderground v.1.15,2013-01-22 11:05:00,
2013-01-22 06:15:00,21.6,4.4,30.11,NW,310,1.0,1.0,47,0.00,,,0.00,Wunderground v.1.15,2013-01-22 11:15:00,
2013-01-22 06:25:00,21.3,3.7,30.11,NW,326,0.0,1.0,46,0.00,,,0.00,Wunderground v.1.15,2013-01-22 11:25:00,
2013-01-22 06:35:00,20.9,4.3,30.11,West,266,0.0,2.0,48,0.00,,,0.00,Wunderground v.1.15,2013-01-22 11:35:00,
2013-01-22 06:40:00,20.8,3.2,30.11,NNW,332,1.0,2.0,46,0.00,,,0.00,Wunderground v.1.15,2013-01-22 11:40:00,
2013-01-22 06:50:00,20.8,2.3,30.12,NNW,337,2.0,2.0,44,0.00,,,0.00,Wunderground v.1.15,2013-01-22 11:50:00,
2013-01-22 06:55:00,20.7,2.2,30.12,NNW,330,2.0,9.0,44,0.00,,,0.00,Wunderground v.1.15,2013-01-22 11:55:00,
2013-01-22 07:05:00,20.6,2.6,30.13,NW,326,1.0,4.0,45,0.00,,,0.00,Wunderground v.1.15,2013-01-22 12:05:00,
2013-01-22 07:14:00,20.4,1.4,30.13,NNW,339,2.0,3.0,43,0.00,,,0.00,Wunderground v.1.15,2013-01-22 12:14:00,
2013-01-22 07:20:00,20.4,1.4,30.13,West,269,2.0,2.0,43,0.00,,,0.00,Wunderground v.1.15,2013-01-22 12:20:00,
2013-01-22 07:25:00,20.3,1.3,30.14,NW,307,1.0,3.0,43,0.00,,,0.00,Wunderground v.1.15,2013-01-22 12:25:00,
2013-01-22 07:35:00,20.2,0.2,30.14,NNW,343,2.0,2.0,41,0.00,,,0.00,Wunderground v.1.15,2013-01-22 12:35:00,
2013-01-22 07:40:00,20.1,0.1,30.14,NW,312,1.0,1.0,41,0.00,,,0.00,Wunderground v.1.15,2013-01-22 12:40:00,
2013-01-22 07:50:00,20.0,1.1,30.15,NNW,343,1.0,1.0,43,0.00,,,0.00,Wunderground v.1.15,2013-01-22 12:50:00,
2013-01-22 08:00:00,19.8,0.4,30.16,NW,318,1.0,2.0,42,0.00,,,0.00,Wunderground v.1.15,2013-01-22 13:00:00,
2013-01-22 08:05:00,19.8,0.9,30.16,WNW,301,1.0,2.0,43,0.00,,,0.00,Wunderground v.1.15,2013-01-22 13:05:00,
2013-01-22 08:15:00,19.7,-0.2,30.16,NNW,346,1.0,2.0,41,0.00,,,0.00,Wunderground v.1.15,2013-01-22 13:15:00,
2013-01-22 08:25:00,19.7,-0.2,30.17,WNW,287,1.0,1.0,41,0.00,,,0.00,Wunderground v.1.15,2013-01-22 13:25:00,
2013-01-22 08:35:00,19.8,0.9,30.17,WNW,299,1.0,1.0,43,0.00,,,0.00,Wunderground v.1.15,2013-01-22 13:35:00,
2013-01-22 08:40:00,19.9,0.5,30.17,North,354,1.0,1.0,42,0.00,,,0.00,Wunderground v.1.15,2013-01-22 13:40:00,
2013-01-22 08:50:00,20.0,0.6,30.18,NNW,332,1.0,1.0,42,0.00,,,0.00,Wunderground v.1.15,2013-01-22 13:50:00,
2013-01-22 08:55:00,20.1,0.1,30.18,NW,322,0.0,1.0,41,0.00,,,0.00,Wunderground v.1.15,2013-01-22 13:55:00,
2013-01-22 09:05:00,20.2,0.2,30.19,NW,311,1.0,1.0,41,0.00,,,0.00,Wunderground v.1.15,2013-01-22 14:05:00,
2013-01-22 09:15:00,20.3,-0.8,30.20,North,354,2.0,2.0,39,0.00,,,0.00,Wunderground v.1.15,2013-01-22 14:15:00,
2013-01-22 09:25:00,20.5,0.0,30.20,NNW,339,1.0,2.0,40,0.00,,,0.00,Wunderground v.1.15,2013-01-22 14:25:00,
2013-01-22 09:30:00,20.6,0.1,30.21,ESE,110,1.0,1.0,40,0.00,,,0.00,Wunderground v.1.15,2013-01-22 14:30:00,
2013-01-22 09:40:00,20.7,-0.9,30.21,North,350,1.0,1.0,38,0.00,,,0.00,Wunderground v.1.15,2013-01-22 14:40:00,
2013-01-22 09:45:00,20.8,0.2,30.21,WNW,296,1.0,1.0,40,0.00,,,0.00,Wunderground v.1.15,2013-01-22 14:45:00,
2013-01-22 09:55:00,21.0,-0.7,30.21,North,4,1.0,1.0,38,0.00,,,0.00,Wunderground v.1.15,2013-01-22 14:55:00,
2013-01-22 10:05:00,21.2,0.1,30.22,WNW,287,2.0,5.0,39,0.00,,,0.00,Wunderground v.1.15,2013-01-22 15:05:00,
2013-01-22 10:15:00,21.6,0.4,30.22,NW,322,1.0,2.0,39,0.00,,,0.00,Wunderground v.1.15,2013-01-22 15:15:00,
2013-01-22 10:20:00,21.7,1.6,30.22,NW,305,0.0,1.0,41,0.00,,,0.00,Wunderground v.1.15,2013-01-22 15:20:00,
2013-01-22 10:30:00,22.1,-0.3,30.22,NW,308,1.0,1.0,37,0.00,,,0.00,Wunderground v.1.15,2013-01-22 15:30:00,
2013-01-22 10:35:00,22.4,0.6,30.22,WNW,290,0.0,1.0,38,0.00,,,0.00,Wunderground v.1.15,2013-01-22 15:35:00,
2013-01-22 10:45:00,22.5,-0.5,30.22,North,349,1.0,2.0,36,0.00,,,0.00,Wunderground v.1.15,2013-01-22 15:45:00,
2013-01-22 10:55:00,22.6,0.2,30.21,North,4,3.0,7.0,37,0.00,,,0.00,Wunderground v.1.15,2013-01-22 15:55:00,
2013-01-22 11:00:00,22.8,0.4,30.21,NNW,345,2.0,2.0,37,0.00,,,0.00,Wunderground v.1.15,2013-01-22 16:00:00,
2013-01-22 11:05:00,23.0,0.6,30.21,North,8,1.0,2.0,37,0.00,,,0.00,Wunderground v.1.15,2013-01-22 16:05:00,
2013-01-22 11:15:00,23.6,1.1,30.21,NNW,337,1.0,3.0,37,0.00,,,0.00,Wunderground v.1.15,2013-01-22 16:15:00,
2013-01-22 11:20:00,23.9,0.8,30.21,North,349,2.0,5.0,36,0.00,,,0.00,Wunderground v.1.15,2013-01-22 16:20:00,
2013-01-22 11:30:00,23.9,0.2,30.20,NNW,332,3.0,8.0,35,0.00,,,0.00,Wunderground v.1.15,2013-01-22 16:30:00,
2013-01-22 11:35:00,23.9,-0.4,30.20,South,188,3.0,8.0,34,0.00,,,0.00,Wunderground v.1.15,2013-01-22 16:35:00,
2013-01-22 11:45:00,24.1,-0.9,30.20,WNW,288,2.0,2.0,33,0.00,,,0.00,Wunderground v.1.15,2013-01-22 16:45:00,
2013-01-22 11:55:00,24.3,-0.1,30.19,NNW,348,3.0,6.0,34,0.00,,,0.00,Wunderground v.1.15,2013-01-22 16:55:00,
2013-01-22 12:00:00,24.2,0.4,30.19,NW,317,3.0,3.0,35,0.00,,,0.00,Wunderground v.1.15,2013-01-22 17:00:00,
2013-01-22 12:05:00,24.5,1.3,30.18,North,354,2.0,3.0,36,0.00,,,0.00,Wunderground v.1.15,2013-01-22 17:05:00,
2013-01-22 12:15:00,24.7,0.3,30.18,NNW,335,3.0,6.0,34,0.00,,,0.00,Wunderground v.1.15,2013-01-22 17:15:00,
2013-01-22 12:20:00,24.7,0.3,30.17,NNE,13,3.0,3.0,34,0.00,,,0.00,Wunderground v.1.15,2013-01-22 17:20:00,
2013-01-22 12:30:00,25.0,0.5,30.17,SSE,157,2.0,2.0,34,0.00,,,0.00,Wunderground v.1.15,2013-01-22 17:30:00,
2013-01-22 12:35:00,25.3,0.8,30.17,NW,314,2.0,2.0,34,0.00,,,0.00,Wunderground v.1.15,2013-01-22 17:35:00,
2013-01-22 12:45:00,25.4,1.5,30.17,North,349,1.0,2.0,35,0.00,,,0.00,Wunderground v.1.15,2013-01-22 17:45:00,
2013-01-22 12:54:00,25.8,0.6,30.17,North,354,2.0,2.0,33,0.00,,,0.00,Wunderground v.1.15,2013-01-22 17:54:00,
2013-01-22 13:00:00,25.8,1.9,30.16,NW,318,2.0,2.0,35,0.00,,,0.00,Wunderground v.1.15,2013-01-22 18:00:00,
2013-01-22 13:05:00,25.9,1.3,30.16,WNW,300,1.0,2.0,34,0.00,,,0.00,Wunderground v.1.15,2013-01-22 18:05:00,
2013-01-22 13:15:00,25.9,0.0,30.15,North,8,2.0,2.0,32,0.00,,,0.00,Wunderground v.1.15,2013-01-22 18:15:00,
2013-01-22 13:20:00,26.2,2.2,30.15,South,177,2.0,2.0,35,0.00,,,0.00,Wunderground v.1.15,2013-01-22 18:20:00,
2013-01-22 13:30:00,26.7,0.7,30.15,NW,318,1.0,2.0,32,0.00,,,0.00,Wunderground v.1.15,2013-01-22 18:30:00,
2013-01-22 13:35:00,26.3,-0.3,30.15,NNW,335,2.0,2.0,31,0.00,,,0.00,Wunderground v.1.15,2013-01-22 18:35:00,
2013-01-22 13:45:00,26.3,-0.3,30.15,WNW,299,1.0,2.0,31,0.00,,,0.00,Wunderground v.1.15,2013-01-22 18:45:00,
2013-01-22 13:50:00,27.0,1.7,30.15,South,187,0.0,3.0,33,0.00,,,0.00,Wunderground v.1.15,2013-01-22 18:50:00,
2013-01-22 14:00:00,27.8,1.7,30.15,North,4,1.0,3.0,32,0.00,,,0.00,Wunderground v.1.15,2013-01-22 19:00:00,
2013-01-22 14:05:00,27.6,2.2,30.14,NE,35,1.0,3.0,33,0.00,,,0.00,Wunderground v.1.15,2013-01-22 19:05:00,
2013-01-22 14:15:00,27.8,1.0,30.14,North,359,2.0,2.0,31,0.00,,,0.00,Wunderground v.1.15,2013-01-22 19:15:00,
2013-01-22 14:20:00,27.9,2.5,30.14,SSE,155,2.0,2.0,33,0.00,,,0.00,Wunderground v.1.15,2013-01-22 19:20:00,
2013-01-22 14:25:00,28.0,2.6,30.14,North,8,1.0,2.0,33,0.00,,,0.00,Wunderground v.1.15,2013-01-22 19:25:00,
2013-01-22 14:35:00,27.6,0.9,30.14,SW,221,2.0,3.0,31,0.00,,,0.00,Wunderground v.1.15,2013-01-22 19:35:00,
2013-01-22 14:45:00,27.6,1.5,30.14,ESE,109,1.0,2.0,32,0.00,,,0.00,Wunderground v.1.15,2013-01-22 19:45:00,
2013-01-22 14:55:00,27.3,1.9,30.15,SW,217,1.0,3.0,33,0.00,,,0.00,Wunderground v.1.15,2013-01-22 19:55:00,
2013-01-22 15:00:00,27.2,0.5,30.15,WNW,294,1.0,1.0,31,0.00,,,0.00,Wunderground v.1.15,2013-01-22 20:00:00,
2013-01-22 15:05:00,27.2,0.5,30.15,SSE,165,1.0,1.0,31,0.00,,,0.00,Wunderground v.1.15,2013-01-22 20:05:00,
2013-01-22 15:15:00,27.4,0.0,30.15,SSW,210,1.0,1.0,30,0.00,,,0.00,Wunderground v.1.15,2013-01-22 20:15:00,
2013-01-22 15:20:00,27.4,1.4,30.15,SE,133,1.0,1.0,32,0.00,,,0.00,Wunderground v.1.15,2013-01-22 20:20:00,
2013-01-22 15:30:00,27.4,0.0,30.15,NE,45,2.0,2.0,30,0.00,,,0.00,Wunderground v.1.15,2013-01-22 20:30:00,
2013-01-22 15:40:00,27.2,-0.2,30.16,SSW,210,2.0,2.0,30,0.00,,,0.00,Wunderground v.1.15,2013-01-22 20:40:00,
2013-01-22 15:45:00,27.2,0.5,30.16,SSW,209,2.0,2.0,31,0.00,,,0.00,Wunderground v.1.15,2013-01-22 20:45:00,
2013-01-22 15:55:00,27.3,1.9,30.16,SSE,156,1.0,2.0,33,0.00,,,0.00,Wunderground v.1.15,2013-01-22 20:55:00,
2013-01-22 16:05:00,27.2,1.8,30.16,North,8,0.0,2.0,33,0.00,,,0.00,Wunderground v.1.15,2013-01-22 21:05:00,
2013-01-22 16:15:00,27.2,1.8,30.17,WSW,258,0.0,1.0,33,0.00,,,0.00,Wunderground v.1.15,2013-01-22 21:15:00,
2013-01-22 16:25:00,27.0,1.0,30.17,NW,304,0.0,0.0,32,0.00,,,0.00,Wunderground v.1.15,2013-01-22 21:25:00,
2013-01-22 16:30:00,26.9,1.6,30.17,NW,307,1.0,1.0,33,0.00,,,0.00,Wunderground v.1.15,2013-01-22 21:30:00,
2013-01-22 16:35:00,26.7,0.7,30.17,NW,312,1.0,1.0,32,0.00,,,0.00,Wunderground v.1.15,2013-01-22 21:35:00,
2013-01-22 16:45:00,26.5,1.2,30.17,NNW,328,0.0,2.0,33,0.00,,,0.00,Wunderground v.1.15,2013-01-22 21:45:00,
2013-01-22 16:49:00,26.4,1.1,30.17,NNW,329,0.0,0.0,33,0.00,,,0.00,Wunderground v.1.15,2013-01-22 21:49:00,
2013-01-22 16:55:00,26.3,0.4,30.17,NW,308,1.0,1.0,32,0.00,,,0.00,Wunderground v.1.15,2013-01-22 21:55:00,
2013-01-22 17:00:00,26.2,1.6,30.17,WNW,289,0.0,0.0,34,0.00,,,0.00,Wunderground v.1.15,2013-01-22 22:00:00,
2013-01-22 17:05:00,26.1,0.2,30.17,North,354,1.0,2.0,32,0.00,,,0.00,Wunderground v.1.15,2013-01-22 22:05:00,
2013-01-22 17:15:00,25.8,1.2,30.18,NNE,13,0.0,1.0,34,0.00,,,0.00,Wunderground v.1.15,2013-01-22 22:15:00,
2013-01-22 17:20:00,25.6,1.1,30.18,WNW,296,0.0,0.0,34,0.00,,,0.00,Wunderground v.1.15,2013-01-22 22:20:00,
2013-01-22 17:30:00,25.3,0.8,30.18,SE,141,0.0,0.0,34,0.00,,,0.00,Wunderground v.1.15,2013-01-22 22:30:00,
2013-01-22 17:40:00,24.9,1.1,30.19,WNW,296,0.0,0.0,35,0.00,,,0.00,Wunderground v.1.15,2013-01-22 22:40:00,
2013-01-22 17:45:00,24.8,1.0,30.20,West,280,0.0,0.0,35,0.00,,,0.00,Wunderground v.1.15,2013-01-22 22:45:00,
2013-01-22 17:55:00,24.5,0.7,30.20,WNW,303,0.0,1.0,35,0.00,,,0.00,Wunderground v.1.15,2013-01-22 22:55:00,
2013-01-22 18:05:00,24.4,1.2,30.21,SSE,165,0.0,0.0,36,0.00,,,0.00,Wunderground v.1.15,2013-01-22 23:05:00,
2013-01-22 18:15:00,24.2,0.4,30.21,North,359,0.0,0.0,35,0.00,,,0.00,Wunderground v.1.15,2013-01-22 23:15:00,
2013-01-22 18:24:00,23.9,1.4,30.21,North,4,0.0,0.0,37,0.00,,,0.00,Wunderground v.1.15,2013-01-22 23:24:00,
2013-01-22 18:30:00,23.6,0.5,30.21,North,4,0.0,0.0,36,0.00,,,0.00,Wunderground v.1.15,2013-01-22 23:30:00,
2013-01-22 18:40:00,22.9,0.5,30.22,North,4,0.0,0.0,37,0.00,,,0.00,Wunderground v.1.15,2013-01-22 23:40:00,
2013-01-22 18:45:00,22.6,0.2,30.22,North,8,0.0,0.0,37,0.00,,,0.00,Wunderground v.1.15,2013-01-22 23:45:00,
2013-01-22 18:55:00,22.3,0.5,30.22,North,8,0.0,0.0,38,0.00,,,0.00,Wunderground v.1.15,2013-01-22 23:55:00,
2013-01-22 19:00:00,22.3,0.5,30.22,North,4,0.0,0.0,38,0.00,,,0.00,Wunderground v.1.15,2013-01-23 00:00:00,
2013-01-22 19:05:00,22.2,1.0,30.22,North,4,0.0,0.0,39,0.00,,,0.00,Wunderground v.1.15,2013-01-23 00:05:00,
2013-01-22 19:15:00,22.1,1.4,30.23,North,4,0.0,0.0,40,0.00,,,0.00,Wunderground v.1.15,2013-01-23 00:15:00,
2013-01-22 19:20:00,21.9,1.2,30.23,North,4,0.0,0.0,40,0.00,,,0.00,Wunderground v.1.15,2013-01-23 00:20:00,
2013-01-22 19:30:00,21.6,1.5,30.23,North,8,0.0,0.0,41,0.00,,,0.00,Wunderground v.1.15,2013-01-23 00:30:00,
2013-01-22 19:40:00,21.4,1.8,30.23,North,4,0.0,0.0,42,0.00,,,0.00,Wunderground v.1.15,2013-01-23 00:40:00,
2013-01-22 19:45:00,21.3,1.7,30.23,North,4,0.0,0.0,42,0.00,,,0.00,Wunderground v.1.15,2013-01-23 00:45:00,
2013-01-22 19:50:00,21.2,2.2,30.24,North,4,0.0,0.0,43,0.00,,,0.00,Wunderground v.1.15,2013-01-23 00:50:00,
2013-01-22 20:00:00,21.0,0.4,30.24,North,4,0.0,0.0,40,0.00,,,0.00,Wunderground v.1.15,2013-01-23 01:00:00,
2013-01-22 20:05:00,21.0,0.9,30.24,North,8,0.0,0.0,41,0.00,,,0.00,Wunderground v.1.15,2013-01-23 01:05:00,
2013-01-22 20:15:00,21.0,1.5,30.24,NNW,330,0.0,1.0,42,0.00,,,0.00,Wunderground v.1.15,2013-01-23 01:15:00,
2013-01-22 20:20:00,20.9,1.4,30.24,NNW,331,0.0,0.0,42,0.00,,,0.00,Wunderground v.1.15,2013-01-23 01:20:00,
2013-01-22 20:30:00,20.7,1.2,30.25,NNW,332,0.0,0.0,42,0.00,,,0.00,Wunderground v.1.15,2013-01-23 01:30:00,
2013-01-22 20:35:00,20.6,1.1,30.24,NNW,331,0.0,0.0,42,0.00,,,0.00,Wunderground v.1.15,2013-01-23 01:35:00,
2013-01-22 20:45:00,20.6,1.1,30.24,NW,308,0.0,0.0,42,0.00,,,0.00,Wunderground v.1.15,2013-01-23 01:45:00,
2013-01-22 20:50:00,20.7,1.2,30.24,NW,308,0.0,0.0,42,0.00,,,0.00,Wunderground v.1.15,2013-01-23 01:50:00,
2013-01-22 21:00:00,20.6,0.6,30.25,WNW,293,0.0,0.0,41,0.00,,,0.00,Wunderground v.1.15,2013-01-23 02:00:00,
2013-01-22 21:05:00,20.5,1.0,30.25,North,359,0.0,0.0,42,0.00,,,0.00,Wunderground v.1.15,2013-01-23 02:05:00,
2013-01-22 21:15:00,20.4,0.9,30.25,NW,319,0.0,0.0,42,0.00,,,0.00,Wunderground v.1.15,2013-01-23 02:15:00,
2013-01-22 21:25:00,20.5,1.0,30.25,NW,320,0.0,0.0,42,0.00,,,0.00,Wunderground v.1.15,2013-01-23 02:25:00,
2013-01-22 21:35:00,20.5,1.5,30.25,West,275,0.0,0.0,43,0.00,,,0.00,Wunderground v.1.15,2013-01-23 02:35:00,
2013-01-22 21:45:00,20.3,0.8,30.26,NW,308,0.0,0.0,42,0.00,,,0.00,Wunderground v.1.15,2013-01-23 02:45:00,
2013-01-22 21:50:00,20.4,0.9,30.26,WNW,295,0.0,0.0,42,0.00,,,0.00,Wunderground v.1.15,2013-01-23 02:50:00,
2013-01-22 22:00:00,20.4,1.9,30.27,NNW,329,0.0,0.0,44,0.00,,,0.00,Wunderground v.1.15,2013-01-23 03:00:00,
2013-01-22 22:05:00,20.2,0.7,30.26,WSW,256,0.0,3.0,42,0.00,,,0.00,Wunderground v.1.15,2013-01-23 03:05:00,
2013-01-22 22:14:00,20.2,1.2,30.27,NNW,328,0.0,0.0,43,0.00,,,0.00,Wunderground v.1.15,2013-01-23 03:14:00,
2013-01-22 22:20:00,20.1,2.1,30.27,NW,326,0.0,0.0,45,0.00,,,0.00,Wunderground v.1.15,2013-01-23 03:20:00,
2013-01-22 22:25:00,20.0,1.5,30.27,NW,326,0.0,0.0,44,0.00,,,0.00,Wunderground v.1.15,2013-01-23 03:25:00,
2013-01-22 22:35:00,20.0,1.5,30.27,NNW,342,0.0,0.0,44,0.00,,,0.00,Wunderground v.1.15,2013-01-23 03:35:00,
2013-01-22 22:40:00,19.9,1.5,30.27,NW,322,0.0,2.0,44,0.00,,,0.00,Wunderground v.1.15,2013-01-23 03:40:00,
2013-01-22 22:50:00,19.7,1.8,30.27,NW,322,0.0,0.0,45,0.00,,,0.00,Wunderground v.1.15,2013-01-23 03:50:00,
2013-01-22 23:00:00,19.3,0.9,30.27,NW,322,0.0,0.0,44,0.00,,,0.00,Wunderground v.1.15,2013-01-23 04:00:00,
2013-01-22 23:05:00,19.0,1.1,30.27,NW,322,0.0,0.0,45,0.00,,,0.00,Wunderground v.1.15,2013-01-23 04:05:00,
2013-01-22 23:15:00,18.6,0.7,30.27,NW,322,0.0,0.0,45,0.00,,,0.00,Wunderground v.1.15,2013-01-23 04:15:00,
2013-01-22 23:25:00,18.2,1.3,30.27,NW,322,0.0,0.0,47,0.00,,,0.00,Wunderground v.1.15,2013-01-23 04:25:00,
2013-01-22 23:35:00,17.9,1.0,30.27,NW,322,0.0,0.0,47,0.00,,,0.00,Wunderground v.1.15,2013-01-23 04:35:00,
2013-01-22 23:40:00,17.7,2.2,30.27,NW,322,0.0,0.0,50,0.00,,,0.00,Wunderground v.1.15,2013-01-23 04:40:00,
2013-01-22 23:50:00,17.5,1.6,30.27,NW,322,0.0,0.0,49,0.00,,,0.00,Wunderground v.1.15,2013-01-23 04:50:00,
2013-01-22 23:55:00,17.5,0.7,30.28,NW,322,0.0,0.0,47,0.00,,,0.00,Wunderground v.1.15,2013-01-23 04:55:00,